sensor_id;sensor_type;location;lat;lon;timestamp;temperature;humidity
41985;DHT22;28319;48.116;10.818;2023-09-19T00:03:48;16.50;99.90
41985;DHT22;28319;48.116;10.818;2023-09-19T00:08:50;16.50;99.90
41985;DHT22;28319;48.116;10.818;2023-09-19T00:13:53;16.40;99.90
41985;DHT22;28319;48.116;10.818;2023-09-19T00:18:55;16.40;99.90
41985;DHT22;28319;48.116;10.818;2023-09-19T00:23:58;16.40;99.90
41985;DHT22;28319;48.116;10.818;2023-09-19T00:29:02;16.40;99.90
41985;DHT22;28319;48.116;10.818;2023-09-19T00:34:06;16.30;99.90
41985;DHT22;28319;48.116;10.818;2023-09-19T00:39:11;16.40;99.90
41985;DHT22;28319;48.116;10.818;2023-09-19T00:44:14;16.40;99.90
41985;DHT22;28319;48.116;10.818;2023-09-19T00:49:18;16.50;99.90
41985;DHT22;28319;48.116;10.818;2023-09-19T00:54:24;16.40;99.90
41985;DHT22;28319;48.116;10.818;2023-09-19T00:59:55;16.40;99.90
41985;DHT22;28319;48.116;10.818;2023-09-19T01:04:58;16.40;99.90
41985;DHT22;28319;48.116;10.818;2023-09-19T01:10:02;16.50;99.90
41985;DHT22;28319;48.116;10.818;2023-09-19T01:15:13;16.30;99.90
41985;DHT22;28319;48.116;10.818;2023-09-19T01:20:27;16.50;99.90
41985;DHT22;28319;48.116;10.818;2023-09-19T01:26:11;16.50;99.90
41985;DHT22;28319;48.116;10.818;2023-09-19T01:31:21;16.40;99.90
41985;DHT22;28319;48.116;10.818;2023-09-19T01:36:26;16.40;99.90
41985;DHT22;28319;48.116;10.818;2023-09-19T01:41:37;16.40;99.90
41985;DHT22;28319;48.116;10.818;2023-09-19T01:46:42;16.40;99.90
41985;DHT22;28319;48.116;10.818;2023-09-19T01:51:53;16.30;99.90
41985;DHT22;28319;48.116;10.818;2023-09-19T01:57:02;16.30;99.90
41985;DHT22;28319;48.116;10.818;2023-09-19T02:02:12;16.20;99.90
41985;DHT22;28319;48.116;10.818;2023-09-19T02:07:16;16.10;99.90
41985;DHT22;28319;48.116;10.818;2023-09-19T02:12:19;16.10;99.90
41985;DHT22;28319;48.116;10.818;2023-09-19T02:17:23;16.10;99.90
41985;DHT22;28319;48.116;10.818;2023-09-19T02:22:26;16.10;99.90
41985;DHT22;28319;48.116;10.818;2023-09-19T02:27:30;16.00;99.90
41985;DHT22;28319;48.116;10.818;2023-09-19T02:32:34;16.00;99.90
41985;DHT22;28319;48.116;10.818;2023-09-19T02:37:39;16.00;99.90
41985;DHT22;28319;48.116;10.818;2023-09-19T02:42:42;16.00;99.90
41985;DHT22;28319;48.116;10.818;2023-09-19T02:47:49;16.00;99.90
41985;DHT22;28319;48.116;10.818;2023-09-19T02:52:51;16.10;99.90
41985;DHT22;28319;48.116;10.818;2023-09-19T02:57:53;16.10;99.90
41985;DHT22;28319;48.116;10.818;2023-09-19T03:02:58;16.10;99.90
41985;DHT22;28319;48.116;10.818;2023-09-19T03:08:01;16.10;99.90
41985;DHT22;28319;48.116;10.818;2023-09-19T03:13:03;16.10;99.90
41985;DHT22;28319;48.116;10.818;2023-09-19T03:18:07;16.00;99.90
41985;DHT22;28319;48.116;10.818;2023-09-19T03:23:09;16.00;99.90
41985;DHT22;28319;48.116;10.818;2023-09-19T03:28:14;16.00;99.90
41985;DHT22;28319;48.116;10.818;2023-09-19T03:33:18;16.10;99.90
41985;DHT22;28319;48.116;10.818;2023-09-19T03:38:20;16.00;99.90
41985;DHT22;28319;48.116;10.818;2023-09-19T03:43:23;15.90;99.90
41985;DHT22;28319;48.116;10.818;2023-09-19T03:48:27;15.90;99.90
41985;DHT22;28319;48.116;10.818;2023-09-19T03:53:30;15.90;99.90
41985;DHT22;28319;48.116;10.818;2023-09-19T03:58:32;15.90;99.90
41985;DHT22;28319;48.116;10.818;2023-09-19T04:03:41;15.90;99.90
41985;DHT22;28319;48.116;10.818;2023-09-19T04:08:49;15.90;99.90
41985;DHT22;28319;48.116;10.818;2023-09-19T04:13:51;15.90;99.90
41985;DHT22;28319;48.116;10.818;2023-09-19T04:18:54;15.90;99.90
41985;DHT22;28319;48.116;10.818;2023-09-19T04:23:56;15.90;99.90
41985;DHT22;28319;48.116;10.818;2023-09-19T04:28:58;15.90;99.90
41985;DHT22;28319;48.116;10.818;2023-09-19T04:34:04;15.90;99.90
41985;DHT22;28319;48.116;10.818;2023-09-19T04:39:06;15.80;99.90
41985;DHT22;28319;48.116;10.818;2023-09-19T04:44:11;15.70;99.90
41985;DHT22;28319;48.116;10.818;2023-09-19T04:49:16;15.70;99.90
41985;DHT22;28319;48.116;10.818;2023-09-19T04:54:19;15.70;99.90
41985;DHT22;28319;48.116;10.818;2023-09-19T04:59:21;15.70;99.90
41985;DHT22;28319;48.116;10.818;2023-09-19T05:04:25;15.70;99.90
41985;DHT22;28319;48.116;10.818;2023-09-19T05:09:28;15.60;99.90
41985;DHT22;28319;48.116;10.818;2023-09-19T05:14:30;15.70;99.90
41985;DHT22;28319;48.116;10.818;2023-09-19T05:19:33;15.80;99.90
41985;DHT22;28319;48.116;10.818;2023-09-19T05:24:35;15.80;99.90
41985;DHT22;28319;48.116;10.818;2023-09-19T05:29:38;15.80;99.90
41985;DHT22;28319;48.116;10.818;2023-09-19T05:34:42;15.90;99.90
41985;DHT22;28319;48.116;10.818;2023-09-19T05:39:45;15.90;99.90
41985;DHT22;28319;48.116;10.818;2023-09-19T05:44:47;15.90;99.90
41985;DHT22;28319;48.116;10.818;2023-09-19T05:49:51;15.90;99.90
41985;DHT22;28319;48.116;10.818;2023-09-19T05:54:54;15.90;99.90
41985;DHT22;28319;48.116;10.818;2023-09-19T05:59:57;15.90;99.90
41985;DHT22;28319;48.116;10.818;2023-09-19T06:05:00;16.00;99.90
41985;DHT22;28319;48.116;10.818;2023-09-19T06:10:03;16.00;99.90
41985;DHT22;28319;48.116;10.818;2023-09-19T06:15:07;15.90;99.90
41985;DHT22;28319;48.116;10.818;2023-09-19T06:20:11;15.90;99.90
41985;DHT22;28319;48.116;10.818;2023-09-19T06:25:16;15.80;99.90
41985;DHT22;28319;48.116;10.818;2023-09-19T06:30:20;15.90;99.90
41985;DHT22;28319;48.116;10.818;2023-09-19T06:35:25;15.90;99.90
41985;DHT22;28319;48.116;10.818;2023-09-19T06:40:27;16.00;99.90
41985;DHT22;28319;48.116;10.818;2023-09-19T06:45:31;16.10;99.90
41985;DHT22;28319;48.116;10.818;2023-09-19T06:50:35;16.10;99.90
41985;DHT22;28319;48.116;10.818;2023-09-19T06:55:37;16.20;99.90
41985;DHT22;28319;48.116;10.818;2023-09-19T07:00:39;16.30;99.90
41985;DHT22;28319;48.116;10.818;2023-09-19T07:05:42;16.40;99.90
41985;DHT22;28319;48.116;10.818;2023-09-19T07:10:44;16.30;99.90
41985;DHT22;28319;48.116;10.818;2023-09-19T07:15:48;16.30;99.90
41985;DHT22;28319;48.116;10.818;2023-09-19T07:20:57;16.40;99.90
41985;DHT22;28319;48.116;10.818;2023-09-19T07:26:02;16.50;99.90
41985;DHT22;28319;48.116;10.818;2023-09-19T07:31:05;16.40;99.90
41985;DHT22;28319;48.116;10.818;2023-09-19T07:36:12;16.50;99.90
41985;DHT22;28319;48.116;10.818;2023-09-19T07:41:15;16.80;99.90
41985;DHT22;28319;48.116;10.818;2023-09-19T07:46:17;16.90;99.90
41985;DHT22;28319;48.116;10.818;2023-09-19T07:51:21;17.00;99.90
41985;DHT22;28319;48.116;10.818;2023-09-19T07:56:23;17.10;99.90
41985;DHT22;28319;48.116;10.818;2023-09-19T08:01:26;17.30;99.90
41985;DHT22;28319;48.116;10.818;2023-09-19T08:06:30;17.30;99.90
41985;DHT22;28319;48.116;10.818;2023-09-19T08:11:32;17.50;99.90
41985;DHT22;28319;48.116;10.818;2023-09-19T08:16:34;17.60;99.90
41985;DHT22;28319;48.116;10.818;2023-09-19T08:21:38;17.60;99.90
41985;DHT22;28319;48.116;10.818;2023-09-19T08:26:40;17.60;99.90
41985;DHT22;28319;48.116;10.818;2023-09-19T08:31:42;17.70;99.90
41985;DHT22;28319;48.116;10.818;2023-09-19T08:36:47;17.90;99.90
41985;DHT22;28319;48.116;10.818;2023-09-19T08:41:49;18.10;99.90
41985;DHT22;28319;48.116;10.818;2023-09-19T08:47:06;18.20;99.90
41985;DHT22;28319;48.116;10.818;2023-09-19T08:52:20;18.30;99.90
41985;DHT22;28319;48.116;10.818;2023-09-19T08:57:24;18.30;99.90
41985;DHT22;28319;48.116;10.818;2023-09-19T09:02:27;18.10;99.90
41985;DHT22;28319;48.116;10.818;2023-09-19T09:07:32;18.30;99.90
41985;DHT22;28319;48.116;10.818;2023-09-19T09:12:35;18.40;99.90
41985;DHT22;28319;48.116;10.818;2023-09-19T09:17:40;18.60;99.90
41985;DHT22;28319;48.116;10.818;2023-09-19T09:22:52;18.70;99.90
41985;DHT22;28319;48.116;10.818;2023-09-19T09:27:59;19.00;99.90
41985;DHT22;28319;48.116;10.818;2023-09-19T09:33:09;19.20;99.90
41985;DHT22;28319;48.116;10.818;2023-09-19T09:38:16;19.10;99.90
41985;DHT22;28319;48.116;10.818;2023-09-19T09:43:26;19.10;99.90
41985;DHT22;28319;48.116;10.818;2023-09-19T09:48:29;18.90;99.90
41985;DHT22;28319;48.116;10.818;2023-09-19T09:53:36;18.90;99.90
41985;DHT22;28319;48.116;10.818;2023-09-19T09:58:51;19.10;99.90
41985;DHT22;28319;48.116;10.818;2023-09-19T10:04:00;19.50;99.90
41985;DHT22;28319;48.116;10.818;2023-09-19T10:09:06;19.80;99.60
41985;DHT22;28319;48.116;10.818;2023-09-19T10:14:15;20.00;99.50
41985;DHT22;28319;48.116;10.818;2023-09-19T10:19:23;20.20;99.30
41985;DHT22;28319;48.116;10.818;2023-09-19T10:24:28;20.00;98.50
41985;DHT22;28319;48.116;10.818;2023-09-19T10:29:33;20.60;99.00
41985;DHT22;28319;48.116;10.818;2023-09-19T10:34:37;20.80;99.00
41985;DHT22;28319;48.116;10.818;2023-09-19T10:39:46;20.60;97.20
41985;DHT22;28319;48.116;10.818;2023-09-19T10:44:51;20.80;97.40
41985;DHT22;28319;48.116;10.818;2023-09-19T10:49:55;21.30;96.90
41985;DHT22;28319;48.116;10.818;2023-09-19T10:55:00;20.80;96.40
41985;DHT22;28319;48.116;10.818;2023-09-19T11:00:04;21.50;95.90
41985;DHT22;28319;48.116;10.818;2023-09-19T11:05:22;21.90;95.60
41985;DHT22;28319;48.116;10.818;2023-09-19T11:10:47;21.90;95.90
41985;DHT22;28319;48.116;10.818;2023-09-19T11:16:03;21.70;95.30
41985;DHT22;28319;48.116;10.818;2023-09-19T11:21:51;21.20;96.30
41985;DHT22;28319;48.116;10.818;2023-09-19T11:27:09;21.00;96.40
41985;DHT22;28319;48.116;10.818;2023-09-19T11:32:14;21.20;96.10
41985;DHT22;28319;48.116;10.818;2023-09-19T11:43:31;22.10;95.60
41985;DHT22;28319;48.116;10.818;2023-09-19T11:48:38;22.50;94.70
41985;DHT22;28319;48.116;10.818;2023-09-19T11:53:43;22.70;93.60
41985;DHT22;28319;48.116;10.818;2023-09-19T11:58:49;22.90;93.70
41985;DHT22;28319;48.116;10.818;2023-09-19T12:03:55;22.90;93.30
41985;DHT22;28319;48.116;10.818;2023-09-19T12:08:59;23.10;93.00
41985;DHT22;28319;48.116;10.818;2023-09-19T12:14:06;22.50;93.80
41985;DHT22;28319;48.116;10.818;2023-09-19T12:19:18;22.70;93.70
41985;DHT22;28319;48.116;10.818;2023-09-19T12:24:21;22.80;93.80
41985;DHT22;28319;48.116;10.818;2023-09-19T12:29:28;22.90;93.60
41985;DHT22;28319;48.116;10.818;2023-09-19T12:34:32;23.30;93.50
41985;DHT22;28319;48.116;10.818;2023-09-19T12:39:35;23.20;92.90
41985;DHT22;28319;48.116;10.818;2023-09-19T12:44:41;23.40;93.60
41985;DHT22;28319;48.116;10.818;2023-09-19T12:50:06;23.10;93.00
41985;DHT22;28319;48.116;10.818;2023-09-19T12:55:19;23.40;93.50
41985;DHT22;28319;48.116;10.818;2023-09-19T13:00:33;23.30;92.90
41985;DHT22;28319;48.116;10.818;2023-09-19T13:05:47;22.90;93.40
41985;DHT22;28319;48.116;10.818;2023-09-19T13:11:10;23.30;92.70
41985;DHT22;28319;48.116;10.818;2023-09-19T13:16:16;22.20;94.20
41985;DHT22;28319;48.116;10.818;2023-09-19T13:21:31;22.00;94.50
41985;DHT22;28319;48.116;10.818;2023-09-19T13:26:39;22.70;94.60
41985;DHT22;28319;48.116;10.818;2023-09-19T13:31:42;22.70;94.00
41985;DHT22;28319;48.116;10.818;2023-09-19T13:36:47;22.80;93.50
41985;DHT22;28319;48.116;10.818;2023-09-19T13:41:49;23.00;93.10
41985;DHT22;28319;48.116;10.818;2023-09-19T13:46:52;23.00;92.50
41985;DHT22;28319;48.116;10.818;2023-09-19T13:51:57;22.90;92.70
41985;DHT22;28319;48.116;10.818;2023-09-19T13:57:01;22.80;92.50
41985;DHT22;28319;48.116;10.818;2023-09-19T14:02:07;22.60;93.60
41985;DHT22;28319;48.116;10.818;2023-09-19T14:07:09;22.60;93.50
41985;DHT22;28319;48.116;10.818;2023-09-19T14:12:12;22.60;93.10
41985;DHT22;28319;48.116;10.818;2023-09-19T14:17:16;22.40;93.40
41985;DHT22;28319;48.116;10.818;2023-09-19T14:22:19;22.40;92.50
41985;DHT22;28319;48.116;10.818;2023-09-19T14:27:21;22.70;93.60
41985;DHT22;28319;48.116;10.818;2023-09-19T14:32:27;22.50;92.70
41985;DHT22;28319;48.116;10.818;2023-09-19T14:37:29;22.30;92.70
41985;DHT22;28319;48.116;10.818;2023-09-19T14:42:31;22.40;93.20
41985;DHT22;28319;48.116;10.818;2023-09-19T14:47:38;22.30;93.20
41985;DHT22;28319;48.116;10.818;2023-09-19T14:52:40;22.40;94.20
41985;DHT22;28319;48.116;10.818;2023-09-19T14:57:42;22.10;93.20
41985;DHT22;28319;48.116;10.818;2023-09-19T15:02:48;22.00;93.40
41985;DHT22;28319;48.116;10.818;2023-09-19T15:07:51;21.90;93.80
41985;DHT22;28319;48.116;10.818;2023-09-19T15:12:53;21.90;94.50
41985;DHT22;28319;48.116;10.818;2023-09-19T15:17:57;21.90;94.00
41985;DHT22;28319;48.116;10.818;2023-09-19T15:22:59;21.80;94.20
41985;DHT22;28319;48.116;10.818;2023-09-19T15:28:02;21.90;94.60
41985;DHT22;28319;48.116;10.818;2023-09-19T15:33:10;21.70;94.40
41985;DHT22;28319;48.116;10.818;2023-09-19T15:38:12;21.70;94.20
41985;DHT22;28319;48.116;10.818;2023-09-19T15:43:15;21.70;94.80
41985;DHT22;28319;48.116;10.818;2023-09-19T15:48:19;21.60;94.40
41985;DHT22;28319;48.116;10.818;2023-09-19T15:53:22;21.50;94.20
41985;DHT22;28319;48.116;10.818;2023-09-19T15:58:24;21.60;94.30
41985;DHT22;28319;48.116;10.818;2023-09-19T16:03:27;21.50;95.00
41985;DHT22;28319;48.116;10.818;2023-09-19T16:08:30;21.30;94.90
41985;DHT22;28319;48.116;10.818;2023-09-19T16:13:34;21.40;95.00
41985;DHT22;28319;48.116;10.818;2023-09-19T16:18:38;21.40;95.60
41985;DHT22;28319;48.116;10.818;2023-09-19T16:23:44;21.20;95.30
41985;DHT22;28319;48.116;10.818;2023-09-19T16:28:47;21.20;95.50
41985;DHT22;28319;48.116;10.818;2023-09-19T16:33:51;21.30;96.30
41985;DHT22;28319;48.116;10.818;2023-09-19T16:38:53;21.10;96.00
41985;DHT22;28319;48.116;10.818;2023-09-19T16:43:56;21.00;96.10
41985;DHT22;28319;48.116;10.818;2023-09-19T16:49:02;20.80;95.60
41985;DHT22;28319;48.116;10.818;2023-09-19T16:54:04;20.60;96.50
41985;DHT22;28319;48.116;10.818;2023-09-19T16:59:06;20.60;96.10
41985;DHT22;28319;48.116;10.818;2023-09-19T17:04:12;20.60;96.10
41985;DHT22;28319;48.116;10.818;2023-09-19T17:09:14;20.40;96.80
41985;DHT22;28319;48.116;10.818;2023-09-19T17:14:18;20.40;97.30
41985;DHT22;28319;48.116;10.818;2023-09-19T17:19:22;20.40;97.30
41985;DHT22;28319;48.116;10.818;2023-09-19T17:24:26;20.30;97.40
41985;DHT22;28319;48.116;10.818;2023-09-19T17:29:28;20.40;97.40
41985;DHT22;28319;48.116;10.818;2023-09-19T17:34:32;20.10;97.50
41985;DHT22;28319;48.116;10.818;2023-09-19T17:39:34;20.10;97.60
41985;DHT22;28319;48.116;10.818;2023-09-19T17:44:36;19.90;97.80
41985;DHT22;28319;48.116;10.818;2023-09-19T17:49:40;19.90;97.60
41985;DHT22;28319;48.116;10.818;2023-09-19T17:54:44;19.80;97.90
41985;DHT22;28319;48.116;10.818;2023-09-19T17:59:46;19.50;98.00
41985;DHT22;28319;48.116;10.818;2023-09-19T18:04:51;19.50;98.20
41985;DHT22;28319;48.116;10.818;2023-09-19T18:09:53;19.50;98.20
41985;DHT22;28319;48.116;10.818;2023-09-19T18:14:55;19.50;98.10
41985;DHT22;28319;48.116;10.818;2023-09-19T18:19:59;19.50;98.10
41985;DHT22;28319;48.116;10.818;2023-09-19T18:25:01;19.40;98.10
41985;DHT22;28319;48.116;10.818;2023-09-19T18:30:04;19.50;98.10
41985;DHT22;28319;48.116;10.818;2023-09-19T18:35:11;19.50;98.00
41985;DHT22;28319;48.116;10.818;2023-09-19T18:40:15;19.40;98.10
41985;DHT22;28319;48.116;10.818;2023-09-19T18:45:17;18.90;98.50
41985;DHT22;28319;48.116;10.818;2023-09-19T18:50:22;19.00;98.50
41985;DHT22;28319;48.116;10.818;2023-09-19T18:55:26;18.90;98.70
41985;DHT22;28319;48.116;10.818;2023-09-19T19:00:29;18.80;98.70
41985;DHT22;28319;48.116;10.818;2023-09-19T19:05:34;18.70;98.80
41985;DHT22;28319;48.116;10.818;2023-09-19T19:10:39;18.70;98.60
41985;DHT22;28319;48.116;10.818;2023-09-19T19:15:43;18.60;98.60
41985;DHT22;28319;48.116;10.818;2023-09-19T19:20:57;18.50;98.70
41985;DHT22;28319;48.116;10.818;2023-09-19T19:26:01;18.50;98.70
41985;DHT22;28319;48.116;10.818;2023-09-19T19:31:05;18.30;98.70
41985;DHT22;28319;48.116;10.818;2023-09-19T19:36:11;18.10;99.20
41985;DHT22;28319;48.116;10.818;2023-09-19T19:41:16;17.80;99.70
41985;DHT22;28319;48.116;10.818;2023-09-19T19:46:21;17.80;99.80
41985;DHT22;28319;48.116;10.818;2023-09-19T19:51:28;17.90;99.70
41985;DHT22;28319;48.116;10.818;2023-09-19T19:56:31;17.80;99.70
41985;DHT22;28319;48.116;10.818;2023-09-19T20:01:35;17.70;99.70
41985;DHT22;28319;48.116;10.818;2023-09-19T20:06:40;17.70;99.60
41985;DHT22;28319;48.116;10.818;2023-09-19T20:11:43;17.70;99.70
41985;DHT22;28319;48.116;10.818;2023-09-19T20:16:46;17.70;99.60
41985;DHT22;28319;48.116;10.818;2023-09-19T20:21:50;17.60;99.80
41985;DHT22;28319;48.116;10.818;2023-09-19T20:26:54;17.50;99.90
41985;DHT22;28319;48.116;10.818;2023-09-19T20:32:01;17.50;99.90
41985;DHT22;28319;48.116;10.818;2023-09-19T20:37:04;17.40;99.90
41985;DHT22;28319;48.116;10.818;2023-09-19T20:42:07;17.30;99.90
41985;DHT22;28319;48.116;10.818;2023-09-19T20:47:10;17.40;99.90
41985;DHT22;28319;48.116;10.818;2023-09-19T20:52:14;17.40;99.90
41985;DHT22;28319;48.116;10.818;2023-09-19T20:57:16;17.30;99.90
41985;DHT22;28319;48.116;10.818;2023-09-19T21:02:18;17.30;99.90
41985;DHT22;28319;48.116;10.818;2023-09-19T21:07:23;17.00;99.90
41985;DHT22;28319;48.116;10.818;2023-09-19T21:12:29;16.90;99.90
41985;DHT22;28319;48.116;10.818;2023-09-19T21:17:31;16.90;99.90
41985;DHT22;28319;48.116;10.818;2023-09-19T21:22:35;16.80;99.90
41985;DHT22;28319;48.116;10.818;2023-09-19T21:27:37;16.90;99.90
41985;DHT22;28319;48.116;10.818;2023-09-19T21:32:39;17.00;99.90
41985;DHT22;28319;48.116;10.818;2023-09-19T21:37:43;17.10;99.90
41985;DHT22;28319;48.116;10.818;2023-09-19T21:42:45;17.00;99.90
41985;DHT22;28319;48.116;10.818;2023-09-19T21:47:48;17.00;99.90
41985;DHT22;28319;48.116;10.818;2023-09-19T21:52:52;16.90;99.90
41985;DHT22;28319;48.116;10.818;2023-09-19T21:57:54;16.80;99.90
41985;DHT22;28319;48.116;10.818;2023-09-19T22:02:56;16.80;99.90
41985;DHT22;28319;48.116;10.818;2023-09-19T22:08:01;16.70;99.90
41985;DHT22;28319;48.116;10.818;2023-09-19T22:13:04;16.70;99.90
41985;DHT22;28319;48.116;10.818;2023-09-19T22:18:08;16.60;99.90
41985;DHT22;28319;48.116;10.818;2023-09-19T22:23:14;16.60;99.90
41985;DHT22;28319;48.116;10.818;2023-09-19T22:28:16;16.50;99.90
41985;DHT22;28319;48.116;10.818;2023-09-19T22:33:18;16.40;99.90
41985;DHT22;28319;48.116;10.818;2023-09-19T22:38:22;16.30;99.90
41985;DHT22;28319;48.116;10.818;2023-09-19T22:43:24;16.30;99.90
41985;DHT22;28319;48.116;10.818;2023-09-19T22:48:33;16.30;99.90
41985;DHT22;28319;48.116;10.818;2023-09-19T22:53:38;16.30;99.90
41985;DHT22;28319;48.116;10.818;2023-09-19T22:58:45;16.30;99.90
41985;DHT22;28319;48.116;10.818;2023-09-19T23:03:47;16.10;99.90
41985;DHT22;28319;48.116;10.818;2023-09-19T23:08:53;16.00;99.90
41985;DHT22;28319;48.116;10.818;2023-09-19T23:13:55;16.10;99.90
41985;DHT22;28319;48.116;10.818;2023-09-19T23:18:59;15.90;99.90
41985;DHT22;28319;48.116;10.818;2023-09-19T23:24:06;16.00;99.90
41985;DHT22;28319;48.116;10.818;2023-09-19T23:29:08;16.00;99.90
41985;DHT22;28319;48.116;10.818;2023-09-19T23:34:11;16.10;99.90
41985;DHT22;28319;48.116;10.818;2023-09-19T23:39:15;15.90;99.90
41985;DHT22;28319;48.116;10.818;2023-09-19T23:44:19;15.60;99.90
41985;DHT22;28319;48.116;10.818;2023-09-19T23:49:22;15.60;99.90
41985;DHT22;28319;48.116;10.818;2023-09-19T23:54:26;15.40;99.90
41985;DHT22;28319;48.116;10.818;2023-09-19T23:59:28;15.60;99.90
